NCAR-RAP Real-Time Weather Data

Output produced by METARs form (19 June 2019  10:40 UTC)
found at http://weather.rap.ucar.edu/surface/
 
KORH 191029Z 00000KT 9SM FEW002 BKN015 17/17 A2989 RMK AO2 T01720167
KORH 190954Z 00000KT 10SM OVC015 17/17 A2989 RMK AO2 SLP122 T01720167
KORH 190946Z 00000KT 9SM OVC015 17/17 A2989 RMK AO2 T01720167
KORH 190854Z AUTO 03003KT 9SM OVC012 17/17 A2989 RMK AO2 SLP120 T01720167 55002
KORH 190849Z AUTO 00000KT 10SM OVC012 17/17 A2989 RMK AO2
KORH 190805Z AUTO 02003KT 10SM OVC006 17/17 A2989 RMK AO2 CIG 004V009 T01670167
KORH 190754Z AUTO 35003KT 9SM OVC004 17/17 A2989 RMK AO2 SLP121 T01670167
KORH 190654Z AUTO 01003KT 5SM BR OVC003 17/17 A2990 RMK AO2 SLP122 T01670167
KORH 190554Z 00000KT 4SM BR OVC002 17/17 A2990 RMK AO2 SLP124 T01720172 10172 20167 55005
KORH 190545Z 00000KT 3SM BR OVC002 17/17 A2991 RMK AO2 T01720172
KORH 190519Z 00000KT 1SM R11/2400VP6000FT BR VV002 17/17 A2991 RMK AO2 T01720172
KORH 190454Z 00000KT 1/4SM R11/1800V2600FT FG VV003 17/17 A2990 RMK AO2 SLP124 T01720172 402060167
KORH 190436Z 00000KT 1/4SM R11/1600V2600FT FG VV003 17/17 A2991 RMK AO2 T01720172
KORH 190354Z 02003KT 1/4SM R11/1200FT FG VV002 17/17 A2991 RMK AO2 SLP127 T01720172
KORH 190254Z 00000KT 1/4SM R11/1400V1600FT FG VV002 17/17 A2992 RMK AO2 SLP130 T01720172 56001
KORH 190210Z 01003KT 1/4SM R11/1800V2000FT FG VV002 17/17 A2992 RMK AO2 T01670167
KORH 190154Z 02003KT 1/4SM R11/2200V2400FT FG VV002 17/17 A2992 RMK AO2 SLP132 T01670167
KORH 190125Z 01003KT 1/4SM R11/1800V2200FT FG VV002 17/17 A2992 RMK AO2 T01670167
KORH 190054Z 02003KT 1/4SM R11/2600V3500FT FG VV002 17/17 A2992 RMK AO2 SLP130 T01670167
KORH 190047Z 03003KT 1/2SM R11/3500V6000FT FG VV002 17/17 A2992 RMK AO2 T01670167
KORH 190032Z 03003KT 1SM R11/P6000FT BR OVC003 17/17 A2992 RMK AO2 T01670167
KORH 190020Z 06003KT 2 1/2SM BR OVC004 17/17 A2992 RMK AO2 T01670167
KORH 190007Z 04003KT 5SM BR OVC005 17/17 A2992 RMK AO2 T01720167
KORH 182354Z 00000KT 6SM BR OVC004 17/17 A2992 RMK AO2 SLP131 60008 T01720167 10189 20172 56003
KORH 182314Z 05003KT 4SM BR BKN002 OVC007 17/17 A2993 RMK AO2 T01720172
KORH 182254Z 03004KT 5SM BR OVC006 17/17 A2993 RMK AO2 CIG 002V007 SLP134 T01720172
KORH 182236Z 03004KT 5SM BR SCT002 OVC006 17/17 A2992 RMK AO2 T01720167
KORH 182154Z 02004KT 4SM BR OVC002 17/17 A2992 RMK AO2 RAE46 SLP132 P0001 T01720172
KORH 182143Z 02006KT 3SM -RA BR BKN003 OVC013 18/17 A2992 RMK AO2 CIG 001V008 P0001 T01780172
KORH 182054Z 16003KT 6SM -RA BR BKN005 BKN009 OVC012 19/18 A2993 RMK AO2 RAB24 SLP134 P0001 60007 T01890183 55013
KORH 182019Z 14006KT 7SM BKN007 OVC017 19/18 A2994 RMK AO2 CIG 005V009 T01890178
KORH 182010Z 13005KT 8SM SCT008 OVC018 19/18 A2993 RMK AO2 T01890178
KORH 181954Z 11005KT 8SM BKN019 OVC110 19/18 A2993 RMK AO2 RAE34 SLP133 P0000 T01890178
KORH 181935Z 11005KT 9SM SCT007 BKN020 OVC110 19/18 A2994 RMK AO2 RAE34 P0000 T01890178
KORH 181926Z VRB05KT 7SM -RA SCT006 BKN011 OVC110 18/18 A2995 RMK AO2 P0000 T01830178
KORH 181854Z 09004KT 6SM -RA BR BKN008 BKN070 OVC100 18/18 A2995 RMK AO2 SLP140 P0006 T01830178
KORH 181846Z 09003KT 5SM RA BR SCT008 BKN075 OVC100 19/18 A2995 RMK AO2 P0005 T01890178
KORH 181754Z 00000KT 7SM -RA FEW050 OVC095 19/16 A2997 RMK AO2 RAB18 SLP147 P0001 60001 T01890161 10206 20172 58006
KORH 181654Z VRB03KT 10SM SCT031 BKN044 OVC050 19/15 A2998 RMK AO2 SLP151 T01940150
KORH 181613Z COR VRB03KT 10SM BKN028 BKN035 19/15 A2999 RMK AO2 T01940150
KORH 181554Z COR VRB03KT 10SM FEW035 19/16 A2999 RMK AO2 SLP153 T01940156
KORH 181454Z VRB03KT 10SM FEW036 SCT070 18/14 A2999 RMK AO2 SLP153 T01830144 58002
KORH 181354Z COR VRB03KT 10SM FEW055 SCT070 18/14 A3000 RMK AO2 SLP157 T01780144
KORH 181254Z 00000KT 10SM CLR 17/14 A3000 RMK AO2 SLP158 T01720139